sensor_id;sensor_type;location;lat;lon;timestamp;temperature;humidity
71649;SHT31;70112;45.624;11.760;2023-12-29T00:01:31;9.10;73.60
71649;SHT31;70112;45.624;11.760;2023-12-29T00:03:56;9.09;73.60
71649;SHT31;70112;45.624;11.760;2023-12-29T00:06:22;9.10;73.62
71649;SHT31;70112;45.624;11.760;2023-12-29T00:08:47;9.10;73.60
71649;SHT31;70112;45.624;11.760;2023-12-29T00:11:19;9.09;73.56
71649;SHT31;70112;45.624;11.760;2023-12-29T00:13:53;8.99;73.52
71649;SHT31;70112;45.624;11.760;2023-12-29T00:16:18;8.86;73.53
71649;SHT31;70112;45.624;11.760;2023-12-29T00:18:47;8.75;73.67
71649;SHT31;70112;45.624;11.760;2023-12-29T00:21:12;8.73;73.67
71649;SHT31;70112;45.624;11.760;2023-12-29T00:23:38;8.68;73.63
71649;SHT31;70112;45.624;11.760;2023-12-29T00:26:06;8.65;73.66
71649;SHT31;70112;45.624;11.760;2023-12-29T00:28:31;8.64;73.59
71649;SHT31;70112;45.624;11.760;2023-12-29T00:30:57;8.63;73.57
71649;SHT31;70112;45.624;11.760;2023-12-29T00:36:22;8.60;73.51
71649;SHT31;70112;45.624;11.760;2023-12-29T00:38:53;8.58;73.38
71649;SHT31;70112;45.624;11.760;2023-12-29T00:44:21;8.34;73.51
71649;SHT31;70112;45.624;11.760;2023-12-29T00:49:55;8.20;73.75
71649;SHT31;70112;45.624;11.760;2023-12-29T00:54:57;8.10;73.74
71649;SHT31;70112;45.624;11.760;2023-12-29T00:57:25;8.08;73.91
71649;SHT31;70112;45.624;11.760;2023-12-29T01:00:12;8.13;73.97
71649;SHT31;70112;45.624;11.760;2023-12-29T01:06:06;8.15;73.89
71649;SHT31;70112;45.624;11.760;2023-12-29T01:11:19;8.22;74.00
71649;SHT31;70112;45.624;11.760;2023-12-29T01:13:47;8.25;73.95
71649;SHT31;70112;45.624;11.760;2023-12-29T01:16:15;8.19;73.78
71649;SHT31;70112;45.624;11.760;2023-12-29T01:18:44;8.07;73.89
71649;SHT31;70112;45.624;11.760;2023-12-29T01:24:36;8.02;73.89
71649;SHT31;70112;45.624;11.760;2023-12-29T01:27:00;7.96;73.91
71649;SHT31;70112;45.624;11.760;2023-12-29T01:29:29;7.96;73.92
71649;SHT31;70112;45.624;11.760;2023-12-29T01:31:54;7.97;73.86
71649;SHT31;70112;45.624;11.760;2023-12-29T01:34:20;7.97;73.72
71649;SHT31;70112;45.624;11.760;2023-12-29T01:36:59;7.90;73.74
71649;SHT31;70112;45.624;11.760;2023-12-29T01:39:27;7.88;73.74
71649;SHT31;70112;45.624;11.760;2023-12-29T01:42:13;7.86;73.84
71649;SHT31;70112;45.624;11.760;2023-12-29T01:44:38;7.86;73.81
71649;SHT31;70112;45.624;11.760;2023-12-29T01:47:11;7.85;73.80
71649;SHT31;70112;45.624;11.760;2023-12-29T01:49:47;7.82;73.86
71649;SHT31;70112;45.624;11.760;2023-12-29T01:52:14;7.82;73.88
71649;SHT31;70112;45.624;11.760;2023-12-29T01:55:07;7.81;73.80
71649;SHT31;70112;45.624;11.760;2023-12-29T01:57:32;7.78;73.82
71649;SHT31;70112;45.624;11.760;2023-12-29T02:00:03;7.81;73.87
71649;SHT31;70112;45.624;11.760;2023-12-29T02:02:33;7.82;73.80
71649;SHT31;70112;45.624;11.760;2023-12-29T02:05:11;7.85;73.80
71649;SHT31;70112;45.624;11.760;2023-12-29T02:14:04;7.75;73.57
71649;SHT31;70112;45.624;11.760;2023-12-29T02:19:07;7.59;73.29
71649;SHT31;70112;45.624;11.760;2023-12-29T02:24:29;7.51;73.17
71649;SHT31;70112;45.624;11.760;2023-12-29T02:27:01;7.49;73.17
71649;SHT31;70112;45.624;11.760;2023-12-29T02:29:32;7.48;73.13
71649;SHT31;70112;45.624;11.760;2023-12-29T02:32:04;7.45;73.04
71649;SHT31;70112;45.624;11.760;2023-12-29T02:35:13;7.41;73.02
71649;SHT31;70112;45.624;11.760;2023-12-29T02:40:45;7.38;73.25
71649;SHT31;70112;45.624;11.760;2023-12-29T02:43:11;7.36;73.21
71649;SHT31;70112;45.624;11.760;2023-12-29T02:46:01;7.32;73.11
71649;SHT31;70112;45.624;11.760;2023-12-29T02:48:31;7.20;72.94
71649;SHT31;70112;45.624;11.760;2023-12-29T02:50:59;7.09;73.10
71649;SHT31;70112;45.624;11.760;2023-12-29T02:53:46;7.04;73.23
71649;SHT31;70112;45.624;11.760;2023-12-29T02:56:31;7.00;73.20
71649;SHT31;70112;45.624;11.760;2023-12-29T02:59:01;6.97;73.29
71649;SHT31;70112;45.624;11.760;2023-12-29T03:01:36;6.92;73.37
71649;SHT31;70112;45.624;11.760;2023-12-29T03:04:02;6.91;73.45
71649;SHT31;70112;45.624;11.760;2023-12-29T03:09:29;6.97;73.48
71649;SHT31;70112;45.624;11.760;2023-12-29T03:12:27;6.98;73.50
71649;SHT31;70112;45.624;11.760;2023-12-29T03:17:40;6.98;73.50
71649;SHT31;70112;45.624;11.760;2023-12-29T03:20:28;7.03;73.50
71649;SHT31;70112;45.624;11.760;2023-12-29T03:25:35;7.01;73.28
71649;SHT31;70112;45.624;11.760;2023-12-29T03:28:04;6.93;73.31
71649;SHT31;70112;45.624;11.760;2023-12-29T03:30:51;6.93;73.34
71649;SHT31;70112;45.624;11.760;2023-12-29T03:33:39;6.85;73.16
71649;SHT31;70112;45.624;11.760;2023-12-29T03:36:08;6.72;73.10
71649;SHT31;70112;45.624;11.760;2023-12-29T03:38:37;6.63;73.12
71649;SHT31;70112;45.624;11.760;2023-12-29T03:41:46;6.52;73.38
71649;SHT31;70112;45.624;11.760;2023-12-29T03:50:13;6.49;73.50
71649;SHT31;70112;45.624;11.760;2023-12-29T03:53:00;6.55;73.55
71649;SHT31;70112;45.624;11.760;2023-12-29T03:58:52;6.59;73.40
71649;SHT31;70112;45.624;11.760;2023-12-29T04:01:19;6.60;73.34
71649;SHT31;70112;45.624;11.760;2023-12-29T04:03:45;6.59;73.27
71649;SHT31;70112;45.624;11.760;2023-12-29T04:06:21;6.65;73.39
71649;SHT31;70112;45.624;11.760;2023-12-29T04:11:29;6.72;73.45
71649;SHT31;70112;45.624;11.760;2023-12-29T04:14:27;6.69;73.32
71649;SHT31;70112;45.624;11.760;2023-12-29T04:16:53;6.57;73.26
71649;SHT31;70112;45.624;11.760;2023-12-29T04:19:27;6.56;73.56
71649;SHT31;70112;45.624;11.760;2023-12-29T04:21:59;6.63;73.74
71649;SHT31;70112;45.624;11.760;2023-12-29T04:24:39;6.74;73.80
71649;SHT31;70112;45.624;11.760;2023-12-29T04:30:22;6.80;74.02
71649;SHT31;70112;45.624;11.760;2023-12-29T04:32:48;6.84;74.23
71649;SHT31;70112;45.624;11.760;2023-12-29T04:35:36;6.91;74.23
71649;SHT31;70112;45.624;11.760;2023-12-29T04:41:06;6.92;74.40
71649;SHT31;70112;45.624;11.760;2023-12-29T04:43:32;6.91;74.54
71649;SHT31;70112;45.624;11.760;2023-12-29T04:45:58;6.91;74.60
71649;SHT31;70112;45.624;11.760;2023-12-29T04:48:31;6.91;74.60
71649;SHT31;70112;45.624;11.760;2023-12-29T04:51:37;6.89;74.68
71649;SHT31;70112;45.624;11.760;2023-12-29T04:54:13;6.92;74.70
71649;SHT31;70112;45.624;11.760;2023-12-29T05:02:19;6.80;74.56
71649;SHT31;70112;45.624;11.760;2023-12-29T05:04:55;6.70;74.64
71649;SHT31;70112;45.624;11.760;2023-12-29T05:07:23;6.64;74.62
71649;SHT31;70112;45.624;11.760;2023-12-29T05:09:52;6.55;74.51
71649;SHT31;70112;45.624;11.760;2023-12-29T05:12:18;6.49;74.53
71649;SHT31;70112;45.624;11.760;2023-12-29T05:17:50;6.46;74.56
71649;SHT31;70112;45.624;11.760;2023-12-29T05:20:51;6.47;74.60
71649;SHT31;70112;45.624;11.760;2023-12-29T05:23:37;6.49;74.69
71649;SHT31;70112;45.624;11.760;2023-12-29T05:26:13;6.53;74.66
71649;SHT31;70112;45.624;11.760;2023-12-29T05:28:59;6.51;74.47
71649;SHT31;70112;45.624;11.760;2023-12-29T05:55:38;6.21;75.00
71649;SHT31;70112;45.624;11.760;2023-12-29T05:58:12;6.27;74.96
71649;SHT31;70112;45.624;11.760;2023-12-29T06:00:43;6.25;74.84
71649;SHT31;70112;45.624;11.760;2023-12-29T06:03:37;6.23;74.86
71649;SHT31;70112;45.624;11.760;2023-12-29T06:06:10;6.24;74.80
71649;SHT31;70112;45.624;11.760;2023-12-29T06:08:41;6.26;74.70
71649;SHT31;70112;45.624;11.760;2023-12-29T06:11:19;6.21;74.54
71649;SHT31;70112;45.624;11.760;2023-12-29T06:13:50;6.16;74.53
71649;SHT31;70112;45.624;11.760;2023-12-29T06:16:58;6.11;74.50
71649;SHT31;70112;45.624;11.760;2023-12-29T06:19:14;6.05;74.56
71649;SHT31;70112;45.624;11.760;2023-12-29T06:25:08;6.04;74.55
71649;SHT31;70112;45.624;11.760;2023-12-29T06:27:36;6.12;74.55
71649;SHT31;70112;45.624;11.760;2023-12-29T06:30:06;6.14;74.40
71649;SHT31;70112;45.624;11.760;2023-12-29T06:35:56;6.09;74.29
71649;SHT31;70112;45.624;11.760;2023-12-29T06:38:21;6.02;74.31
71649;SHT31;70112;45.624;11.760;2023-12-29T06:41:00;6.01;74.40
71649;SHT31;70112;45.624;11.760;2023-12-29T06:46:31;5.96;74.28
71649;SHT31;70112;45.624;11.760;2023-12-29T06:49:21;5.93;74.36
71649;SHT31;70112;45.624;11.760;2023-12-29T06:51:54;5.92;74.48
71649;SHT31;70112;45.624;11.760;2023-12-29T06:54:20;5.96;74.49
71649;SHT31;70112;45.624;11.760;2023-12-29T06:56:51;6.03;74.47
71649;SHT31;70112;45.624;11.760;2023-12-29T06:59:19;6.06;74.39
71649;SHT31;70112;45.624;11.760;2023-12-29T07:01:46;6.03;74.22
71649;SHT31;70112;45.624;11.760;2023-12-29T07:07:38;5.96;74.40
71649;SHT31;70112;45.624;11.760;2023-12-29T07:13:24;6.05;74.38
71649;SHT31;70112;45.624;11.760;2023-12-29T07:15:50;6.09;74.40
71649;SHT31;70112;45.624;11.760;2023-12-29T07:18:18;6.13;74.33
71649;SHT31;70112;45.624;11.760;2023-12-29T07:20:44;6.13;74.32
71649;SHT31;70112;45.624;11.760;2023-12-29T07:23:12;6.10;74.21
71649;SHT31;70112;45.624;11.760;2023-12-29T07:25:41;6.03;74.27
71649;SHT31;70112;45.624;11.760;2023-12-29T07:28:09;6.02;74.50
71649;SHT31;70112;45.624;11.760;2023-12-29T07:30:46;6.04;74.52
71649;SHT31;70112;45.624;11.760;2023-12-29T07:33:12;6.08;74.61
71649;SHT31;70112;45.624;11.760;2023-12-29T07:36:12;6.14;74.64
71649;SHT31;70112;45.624;11.760;2023-12-29T07:39:00;6.28;74.58
71649;SHT31;70112;45.624;11.760;2023-12-29T07:41:34;6.41;74.44
71649;SHT31;70112;45.624;11.760;2023-12-29T07:44:25;6.51;74.32
71649;SHT31;70112;45.624;11.760;2023-12-29T07:46:52;6.60;74.21
71649;SHT31;70112;45.624;11.760;2023-12-29T07:49:18;6.58;74.13
71649;SHT31;70112;45.624;11.760;2023-12-29T07:54:35;6.60;74.31
71649;SHT31;70112;45.624;11.760;2023-12-29T08:00:15;6.80;74.09
71649;SHT31;70112;45.624;11.760;2023-12-29T08:03:01;6.87;73.90
71649;SHT31;70112;45.624;11.760;2023-12-29T08:05:29;6.91;73.81
71649;SHT31;70112;45.624;11.760;2023-12-29T08:07:55;6.88;74.03
71649;SHT31;70112;45.624;11.760;2023-12-29T08:10:26;6.82;74.18
71649;SHT31;70112;45.624;11.760;2023-12-29T08:12:56;6.84;74.43
71649;SHT31;70112;45.624;11.760;2023-12-29T08:15:24;6.88;74.46
71649;SHT31;70112;45.624;11.760;2023-12-29T08:20:56;6.91;74.70
71649;SHT31;70112;45.624;11.760;2023-12-29T08:23:42;7.00;74.78
71649;SHT31;70112;45.624;11.760;2023-12-29T08:26:07;7.13;74.82
71649;SHT31;70112;45.624;11.760;2023-12-29T08:28:32;7.26;74.80
71649;SHT31;70112;45.624;11.760;2023-12-29T08:30:58;7.39;74.75
71649;SHT31;70112;45.624;11.760;2023-12-29T08:36:10;7.53;74.63
71649;SHT31;70112;45.624;11.760;2023-12-29T08:39:15;7.54;74.83
71649;SHT31;70112;45.624;11.760;2023-12-29T08:41:41;7.60;74.90
71649;SHT31;70112;45.624;11.760;2023-12-29T08:44:09;7.63;74.89
71649;SHT31;70112;45.624;11.760;2023-12-29T08:46:35;7.66;74.93
71649;SHT31;70112;45.624;11.760;2023-12-29T08:49:05;7.72;74.96
71649;SHT31;70112;45.624;11.760;2023-12-29T08:51:32;7.78;74.75
71649;SHT31;70112;45.624;11.760;2023-12-29T08:56:45;7.90;74.99
71649;SHT31;70112;45.624;11.760;2023-12-29T08:59:13;7.97;75.00
71649;SHT31;70112;45.624;11.760;2023-12-29T09:01:41;7.98;74.92
71649;SHT31;70112;45.624;11.760;2023-12-29T09:04:30;7.99;75.00
71649;SHT31;70112;45.624;11.760;2023-12-29T09:06:55;8.05;75.00
71649;SHT31;70112;45.624;11.760;2023-12-29T09:09:29;8.08;75.00
71649;SHT31;70112;45.624;11.760;2023-12-29T09:11:55;8.12;75.01
71649;SHT31;70112;45.624;11.760;2023-12-29T09:14:20;8.18;75.00
71649;SHT31;70112;45.624;11.760;2023-12-29T09:16:46;8.22;74.94
71649;SHT31;70112;45.624;11.760;2023-12-29T09:19:32;8.26;74.91
71649;SHT31;70112;45.624;11.760;2023-12-29T09:21:57;8.29;74.96
71649;SHT31;70112;45.624;11.760;2023-12-29T09:24:22;8.31;74.87
71649;SHT31;70112;45.624;11.760;2023-12-29T09:26:57;8.33;74.69
71649;SHT31;70112;45.624;11.760;2023-12-29T09:29:23;8.37;74.56
71649;SHT31;70112;45.624;11.760;2023-12-29T09:31:48;8.39;74.51
71649;SHT31;70112;45.624;11.760;2023-12-29T09:34:13;8.41;74.53
71649;SHT31;70112;45.624;11.760;2023-12-29T09:36:39;8.42;74.40
71649;SHT31;70112;45.624;11.760;2023-12-29T09:39:05;8.43;74.30
71649;SHT31;70112;45.624;11.760;2023-12-29T09:41:40;8.45;74.35
71649;SHT31;70112;45.624;11.760;2023-12-29T09:44:08;8.44;74.30
71649;SHT31;70112;45.624;11.760;2023-12-29T09:46:39;8.47;74.40
71649;SHT31;70112;45.624;11.760;2023-12-29T09:49:07;8.49;74.40
71649;SHT31;70112;45.624;11.760;2023-12-29T09:51:36;8.53;74.36
71649;SHT31;70112;45.624;11.760;2023-12-29T09:54:23;8.57;74.34
71649;SHT31;70112;45.624;11.760;2023-12-29T09:56:49;8.60;74.11
71649;SHT31;70112;45.624;11.760;2023-12-29T09:59:15;8.64;74.13
71649;SHT31;70112;45.624;11.760;2023-12-29T10:01:42;8.70;74.18
71649;SHT31;70112;45.624;11.760;2023-12-29T10:04:48;8.76;74.01
71649;SHT31;70112;45.624;11.760;2023-12-29T10:07:15;8.80;73.97
71649;SHT31;70112;45.624;11.760;2023-12-29T10:09:44;8.84;74.04
71649;SHT31;70112;45.624;11.760;2023-12-29T10:12:13;8.90;74.20
71649;SHT31;70112;45.624;11.760;2023-12-29T10:21:23;9.15;73.43
71649;SHT31;70112;45.624;11.760;2023-12-29T10:24:12;9.24;73.33
71649;SHT31;70112;45.624;11.760;2023-12-29T10:26:39;9.30;73.25
71649;SHT31;70112;45.624;11.760;2023-12-29T10:29:05;9.34;73.26
71649;SHT31;70112;45.624;11.760;2023-12-29T10:31:32;9.41;73.31
71649;SHT31;70112;45.624;11.760;2023-12-29T10:36:51;9.54;73.04
71649;SHT31;70112;45.624;11.760;2023-12-29T10:39:18;9.60;72.98
71649;SHT31;70112;45.624;11.760;2023-12-29T10:42:07;9.65;72.86
71649;SHT31;70112;45.624;11.760;2023-12-29T10:44:34;9.71;72.80
71649;SHT31;70112;45.624;11.760;2023-12-29T10:47:11;9.72;72.80
71649;SHT31;70112;45.624;11.760;2023-12-29T10:49:37;9.77;72.78
71649;SHT31;70112;45.624;11.760;2023-12-29T10:52:12;9.85;72.61
71649;SHT31;70112;45.624;11.760;2023-12-29T10:54:41;9.91;72.38
71649;SHT31;70112;45.624;11.760;2023-12-29T10:57:08;9.95;72.19
71649;SHT31;70112;45.624;11.760;2023-12-29T10:59:35;9.98;72.22
71649;SHT31;70112;45.624;11.760;2023-12-29T11:02:01;9.98;72.28
71649;SHT31;70112;45.624;11.760;2023-12-29T11:04:30;9.98;72.40
71649;SHT31;70112;45.624;11.760;2023-12-29T11:06:58;9.99;72.39
71649;SHT31;70112;45.624;11.760;2023-12-29T11:09:27;9.99;72.35
71649;SHT31;70112;45.624;11.760;2023-12-29T11:12:06;10.00;72.18
71649;SHT31;70112;45.624;11.760;2023-12-29T11:14:31;10.00;72.04
71649;SHT31;70112;45.624;11.760;2023-12-29T11:17:00;9.98;72.05
71649;SHT31;70112;45.624;11.760;2023-12-29T11:19:26;9.97;71.90
71649;SHT31;70112;45.624;11.760;2023-12-29T11:21:54;9.96;72.01
71649;SHT31;70112;45.624;11.760;2023-12-29T11:24:20;9.95;71.98
71649;SHT31;70112;45.624;11.760;2023-12-29T11:26:50;9.93;72.00
71649;SHT31;70112;45.624;11.760;2023-12-29T11:29:18;9.93;72.09
71649;SHT31;70112;45.624;11.760;2023-12-29T11:31:44;9.91;72.23
71649;SHT31;70112;45.624;11.760;2023-12-29T11:34:12;9.88;71.94
71649;SHT31;70112;45.624;11.760;2023-12-29T11:36:44;9.87;71.89
71649;SHT31;70112;45.624;11.760;2023-12-29T11:39:14;9.90;72.21
71649;SHT31;70112;45.624;11.760;2023-12-29T11:41:49;9.88;72.40
71649;SHT31;70112;45.624;11.760;2023-12-29T11:44:31;9.89;72.50
71649;SHT31;70112;45.624;11.760;2023-12-29T11:46:58;9.88;72.51
71649;SHT31;70112;45.624;11.760;2023-12-29T11:49:25;9.89;72.51
71649;SHT31;70112;45.624;11.760;2023-12-29T11:51:50;9.87;72.55
71649;SHT31;70112;45.624;11.760;2023-12-29T11:54:25;9.85;72.52
71649;SHT31;70112;45.624;11.760;2023-12-29T11:56:54;9.85;72.59
71649;SHT31;70112;45.624;11.760;2023-12-29T11:59:23;9.85;72.50
71649;SHT31;70112;45.624;11.760;2023-12-29T12:01:53;9.85;72.49
71649;SHT31;70112;45.624;11.760;2023-12-29T12:09:41;9.94;72.43
71649;SHT31;70112;45.624;11.760;2023-12-29T12:12:07;9.97;72.30
71649;SHT31;70112;45.624;11.760;2023-12-29T12:14:43;10.01;72.19
71649;SHT31;70112;45.624;11.760;2023-12-29T12:17:09;10.06;72.08
71649;SHT31;70112;45.624;11.760;2023-12-29T12:19:35;10.11;71.92
71649;SHT31;70112;45.624;11.760;2023-12-29T12:22:01;10.16;71.78
71649;SHT31;70112;45.624;11.760;2023-12-29T12:24:27;10.19;71.50
71649;SHT31;70112;45.624;11.760;2023-12-29T12:26:53;10.23;71.28
71649;SHT31;70112;45.624;11.760;2023-12-29T12:29:19;10.29;71.20
71649;SHT31;70112;45.624;11.760;2023-12-29T12:32:18;10.36;71.13
71649;SHT31;70112;45.624;11.760;2023-12-29T12:37:12;10.54;70.88
71649;SHT31;70112;45.624;11.760;2023-12-29T12:39:43;10.57;70.64
71649;SHT31;70112;45.624;11.760;2023-12-29T12:42:09;10.62;70.64
71649;SHT31;70112;45.624;11.760;2023-12-29T12:44:37;10.67;70.50
71649;SHT31;70112;45.624;11.760;2023-12-29T12:47:06;10.70;70.30
71649;SHT31;70112;45.624;11.760;2023-12-29T12:49:33;10.72;70.13
71649;SHT31;70112;45.624;11.760;2023-12-29T12:51:58;10.73;70.02
71649;SHT31;70112;45.624;11.760;2023-12-29T12:54:24;10.76;69.99
71649;SHT31;70112;45.624;11.760;2023-12-29T12:56:50;10.79;70.02
71649;SHT31;70112;45.624;11.760;2023-12-29T12:59:16;10.82;70.00
71649;SHT31;70112;45.624;11.760;2023-12-29T13:01:41;10.85;69.92
71649;SHT31;70112;45.624;11.760;2023-12-29T13:04:07;10.90;69.93
71649;SHT31;70112;45.624;11.760;2023-12-29T13:06:34;10.94;69.66
71649;SHT31;70112;45.624;11.760;2023-12-29T13:09:00;10.93;69.13
71649;SHT31;70112;45.624;11.760;2023-12-29T13:11:27;10.94;69.08
71649;SHT31;70112;45.624;11.760;2023-12-29T13:13:53;10.96;69.17
71649;SHT31;70112;45.624;11.760;2023-12-29T13:16:35;10.96;69.16
71649;SHT31;70112;45.624;11.760;2023-12-29T13:19:17;10.95;69.16
71649;SHT31;70112;45.624;11.760;2023-12-29T13:21:46;10.95;69.16
71649;SHT31;70112;45.624;11.760;2023-12-29T13:24:15;10.94;69.09
71649;SHT31;70112;45.624;11.760;2023-12-29T13:26:43;10.93;69.10
71649;SHT31;70112;45.624;11.760;2023-12-29T13:29:09;10.93;69.15
71649;SHT31;70112;45.624;11.760;2023-12-29T13:31:36;10.94;68.95
71649;SHT31;70112;45.624;11.760;2023-12-29T13:34:04;10.94;68.78
71649;SHT31;70112;45.624;11.760;2023-12-29T13:36:36;10.91;68.90
71649;SHT31;70112;45.624;11.760;2023-12-29T13:39:08;10.90;68.86
71649;SHT31;70112;45.624;11.760;2023-12-29T13:41:50;10.86;68.82
71649;SHT31;70112;45.624;11.760;2023-12-29T13:44:16;10.84;68.69
71649;SHT31;70112;45.624;11.760;2023-12-29T13:46:42;10.83;68.52
71649;SHT31;70112;45.624;11.760;2023-12-29T13:49:08;10.82;68.29
71649;SHT31;70112;45.624;11.760;2023-12-29T13:51:34;10.80;68.50
71649;SHT31;70112;45.624;11.760;2023-12-29T13:54:00;10.76;68.73
71649;SHT31;70112;45.624;11.760;2023-12-29T13:56:26;10.74;68.77
71649;SHT31;70112;45.624;11.760;2023-12-29T13:58:51;10.73;69.04
71649;SHT31;70112;45.624;11.760;2023-12-29T14:04:00;10.70;68.99
71649;SHT31;70112;45.624;11.760;2023-12-29T14:06:29;10.69;68.88
71649;SHT31;70112;45.624;11.760;2023-12-29T14:08:57;10.69;68.99
71649;SHT31;70112;45.624;11.760;2023-12-29T14:11:22;10.68;69.10
71649;SHT31;70112;45.624;11.760;2023-12-29T14:13:48;10.69;69.12
71649;SHT31;70112;45.624;11.760;2023-12-29T14:16:14;10.69;69.27
71649;SHT31;70112;45.624;11.760;2023-12-29T14:18:54;10.68;69.29
71649;SHT31;70112;45.624;11.760;2023-12-29T14:21:31;10.67;69.31
71649;SHT31;70112;45.624;11.760;2023-12-29T14:26:29;10.71;69.63
71649;SHT31;70112;45.624;11.760;2023-12-29T14:29:03;10.76;69.61
71649;SHT31;70112;45.624;11.760;2023-12-29T14:31:37;10.81;69.36
71649;SHT31;70112;45.624;11.760;2023-12-29T14:34:04;10.84;69.39
71649;SHT31;70112;45.624;11.760;2023-12-29T14:36:32;10.85;69.25
71649;SHT31;70112;45.624;11.760;2023-12-29T14:38:57;10.85;69.09
71649;SHT31;70112;45.624;11.760;2023-12-29T14:41:23;10.84;69.17
71649;SHT31;70112;45.624;11.760;2023-12-29T14:43:49;10.83;69.40
71649;SHT31;70112;45.624;11.760;2023-12-29T14:46:15;10.80;69.49
71649;SHT31;70112;45.624;11.760;2023-12-29T14:48:40;10.80;69.33
71649;SHT31;70112;45.624;11.760;2023-12-29T14:51:09;10.82;69.46
71649;SHT31;70112;45.624;11.760;2023-12-29T14:53:34;10.81;69.48
71649;SHT31;70112;45.624;11.760;2023-12-29T14:56:03;10.77;69.43
71649;SHT31;70112;45.624;11.760;2023-12-29T14:58:28;10.75;69.51
71649;SHT31;70112;45.624;11.760;2023-12-29T15:00:55;10.77;69.67
71649;SHT31;70112;45.624;11.760;2023-12-29T15:03:20;10.77;69.67
71649;SHT31;70112;45.624;11.760;2023-12-29T15:05:49;10.76;69.82
71649;SHT31;70112;45.624;11.760;2023-12-29T15:08:15;10.72;69.92
71649;SHT31;70112;45.624;11.760;2023-12-29T15:10:42;10.63;70.01
71649;SHT31;70112;45.624;11.760;2023-12-29T15:13:09;10.57;69.93
71649;SHT31;70112;45.624;11.760;2023-12-29T15:15:35;10.56;70.03
71649;SHT31;70112;45.624;11.760;2023-12-29T15:18:01;10.51;70.06
71649;SHT31;70112;45.624;11.760;2023-12-29T15:20:29;10.43;69.94
71649;SHT31;70112;45.624;11.760;2023-12-29T15:22:55;10.41;70.01
71649;SHT31;70112;45.624;11.760;2023-12-29T15:25:20;10.41;70.22
71649;SHT31;70112;45.624;11.760;2023-12-29T15:27:48;10.43;70.29
71649;SHT31;70112;45.624;11.760;2023-12-29T15:30:14;10.43;70.30
71649;SHT31;70112;45.624;11.760;2023-12-29T15:32:39;10.43;70.28
71649;SHT31;70112;45.624;11.760;2023-12-29T15:35:05;10.40;70.30
71649;SHT31;70112;45.624;11.760;2023-12-29T15:37:32;10.31;70.50
71649;SHT31;70112;45.624;11.760;2023-12-29T15:39:57;10.24;70.50
71649;SHT31;70112;45.624;11.760;2023-12-29T15:42:24;10.17;70.43
71649;SHT31;70112;45.624;11.760;2023-12-29T15:44:50;10.11;70.47
71649;SHT31;70112;45.624;11.760;2023-12-29T15:47:15;10.05;70.49
71649;SHT31;70112;45.624;11.760;2023-12-29T15:49:41;10.03;70.68
71649;SHT31;70112;45.624;11.760;2023-12-29T15:52:06;10.02;70.96
71649;SHT31;70112;45.624;11.760;2023-12-29T15:54:32;10.00;70.91
71649;SHT31;70112;45.624;11.760;2023-12-29T15:56:58;9.96;71.11
71649;SHT31;70112;45.624;11.760;2023-12-29T15:59:23;9.91;71.18
71649;SHT31;70112;45.624;11.760;2023-12-29T16:01:50;9.91;71.20
71649;SHT31;70112;45.624;11.760;2023-12-29T16:04:16;9.92;71.16
71649;SHT31;70112;45.624;11.760;2023-12-29T16:06:41;9.91;71.10
71649;SHT31;70112;45.624;11.760;2023-12-29T16:09:07;9.90;71.10
71649;SHT31;70112;45.624;11.760;2023-12-29T16:11:35;9.91;71.10
71649;SHT31;70112;45.624;11.760;2023-12-29T16:14:01;9.92;71.10
71649;SHT31;70112;45.624;11.760;2023-12-29T16:16:27;9.92;71.11
71649;SHT31;70112;45.624;11.760;2023-12-29T16:18:59;9.92;71.19
71649;SHT31;70112;45.624;11.760;2023-12-29T16:21:25;9.92;71.25
71649;SHT31;70112;45.624;11.760;2023-12-29T16:23:52;9.94;71.33
71649;SHT31;70112;45.624;11.760;2023-12-29T16:26:38;9.98;71.39
71649;SHT31;70112;45.624;11.760;2023-12-29T16:29:06;9.99;71.46
71649;SHT31;70112;45.624;11.760;2023-12-29T16:31:31;10.04;71.53
71649;SHT31;70112;45.624;11.760;2023-12-29T16:33:58;10.05;71.51
71649;SHT31;70112;45.624;11.760;2023-12-29T16:36:24;10.05;71.56
71649;SHT31;70112;45.624;11.760;2023-12-29T16:38:50;10.11;71.69
71649;SHT31;70112;45.624;11.760;2023-12-29T16:41:18;10.13;71.60
71649;SHT31;70112;45.624;11.760;2023-12-29T16:43:46;10.14;71.60
71649;SHT31;70112;45.624;11.760;2023-12-29T16:46:11;10.12;71.60
71649;SHT31;70112;45.624;11.760;2023-12-29T16:48:37;10.10;71.63
71649;SHT31;70112;45.624;11.760;2023-12-29T16:51:02;10.10;71.70
71649;SHT31;70112;45.624;11.760;2023-12-29T16:53:31;10.12;71.70
71649;SHT31;70112;45.624;11.760;2023-12-29T16:55:58;10.15;71.68
71649;SHT31;70112;45.624;11.760;2023-12-29T16:58:23;10.15;71.72
71649;SHT31;70112;45.624;11.760;2023-12-29T17:00:52;10.14;71.70
71649;SHT31;70112;45.624;11.760;2023-12-29T17:03:18;10.16;71.71
71649;SHT31;70112;45.624;11.760;2023-12-29T17:06:01;10.18;71.67
71649;SHT31;70112;45.624;11.760;2023-12-29T17:08:28;10.12;71.68
71649;SHT31;70112;45.624;11.760;2023-12-29T17:10:55;10.08;71.82
71649;SHT31;70112;45.624;11.760;2023-12-29T17:13:21;10.07;71.93
71649;SHT31;70112;45.624;11.760;2023-12-29T17:15:46;10.10;71.97
71649;SHT31;70112;45.624;11.760;2023-12-29T17:18:12;10.15;71.90
71649;SHT31;70112;45.624;11.760;2023-12-29T17:20:37;10.17;71.87
71649;SHT31;70112;45.624;11.760;2023-12-29T17:23:03;10.15;71.89
71649;SHT31;70112;45.624;11.760;2023-12-29T17:25:29;10.14;71.90
71649;SHT31;70112;45.624;11.760;2023-12-29T17:28:03;10.11;71.90
71649;SHT31;70112;45.624;11.760;2023-12-29T17:30:29;10.10;71.94
71649;SHT31;70112;45.624;11.760;2023-12-29T17:32:54;10.11;72.02
71649;SHT31;70112;45.624;11.760;2023-12-29T17:35:20;10.12;72.08
71649;SHT31;70112;45.624;11.760;2023-12-29T17:37:48;10.12;72.01
71649;SHT31;70112;45.624;11.760;2023-12-29T17:40:23;10.13;71.98
71649;SHT31;70112;45.624;11.760;2023-12-29T17:42:51;10.09;72.02
71649;SHT31;70112;45.624;11.760;2023-12-29T17:45:17;10.06;72.10
71649;SHT31;70112;45.624;11.760;2023-12-29T17:47:42;10.04;72.10
71649;SHT31;70112;45.624;11.760;2023-12-29T17:50:09;9.97;71.97
71649;SHT31;70112;45.624;11.760;2023-12-29T17:52:35;9.90;72.14
71649;SHT31;70112;45.624;11.760;2023-12-29T17:55:01;9.83;72.15
71649;SHT31;70112;45.624;11.760;2023-12-29T17:57:27;9.82;72.26
71649;SHT31;70112;45.624;11.760;2023-12-29T17:59:52;9.81;72.22
71649;SHT31;70112;45.624;11.760;2023-12-29T18:02:18;9.77;72.37
71649;SHT31;70112;45.624;11.760;2023-12-29T18:04:43;9.73;72.51
71649;SHT31;70112;45.624;11.760;2023-12-29T18:07:09;9.67;72.54
71649;SHT31;70112;45.624;11.760;2023-12-29T18:09:38;9.66;72.67
71649;SHT31;70112;45.624;11.760;2023-12-29T18:12:04;9.66;72.76
71649;SHT31;70112;45.624;11.760;2023-12-29T18:14:39;9.66;72.86